UADD

Details ICAO UADD (DMB)
Name TARAZ
Region Kazakhstan and Kyrgyzstan
Timezone Asia/Almaty (UTC+6.0)
Plans Departing 13
Arriving 22
Stats Elevation 2,184 ft / 666 m (AMSL)
Location 42.853500° 71.303700°
Runways 1
Magnetic Variation 5.869° E
Sunrise 2018-12-10 02:35:44 UTC / 2018-12-10 08:35:44 Local
Sunset 2018-12-10 11:41:58 UTC / 2018-12-10 17:41:58 Local
Advertisement - Login to hide

Runways

ID Width Length Bearing (true/mag) Surface Threshold Overrun Markings Lighting
13 148 ft / 45 m 9,523 ft / 2,903 m 137.09° / 131.23° ASPHALT 0 ft / 0 m 0 ft / 0 m APP EDGE THRESHOLD SALS
31 148 ft / 45 m 9,523 ft / 2,903 m 317.11° / 311.24° ASPHALT 722 ft / 220 m 0 ft / 0 m APP EDGE THRESHOLD SALS

Map

Weather


0- 5 10 15 20 25 30 35+ Temperature / °C

Clouds and Precipitation
Forecast for 2018-12-10 00:00 UTC. Updated 3 hours ago

Ground ~20,000 ft ~40,000 ft Winds

METAR

UADD 100000Z 21003MPS 9999 OVC038 05/04 Q1018 R13/290056 NOSIG RMK QFE706/0942

TAF

Not found

Frequencies

Approach 122.10 MHz
Tower 120.80 MHz
Approach 120.80 MHz
Tower 122.10 MHz
Warning: Do not use this data for real-world aviation or navigation. No guarantee of current accuracy is given.